• Join FlightAware (Why Join?)
  • Login
  • US Flag 
08:06AM EDT


 

Airport Tracker/Info


-or-


 

Live Flight TrackerFlight Track Log ✈ SWA378 ✈ 15-May-2013 ✈ KBWI - KALB

Flight Track Log - Related Links

Times and Time Zones

All times are in EDT time to prevent confusion due to time zone crossing. See the SWA378 flight status page for this flight to view local times or setup timezone preferences in your user account.

Time Position Orientation Groundspeed Altitude Reporting Facility
EDT Latitude Longitude Course Direction KTS MPH feet Rate Location/Type
10:25PM 39.1600 -76.7372 123° Southeast 186 214 2,000  Level Washington Center
10:26PM 39.1333 -76.6833 123° Southeast 265 305 4,100 2,820 Climbing Potomac TRACON
10:28PM 39.1353 -76.4506 89° East 295 339 10,600 2,820 Climbing Washington Center
10:29PM 39.1425 -76.3194 86° East 333 383 13,400 3,000 Climbing Washington Center
10:30PM 39.1517 -76.1831 85° East 366 421 16,600 3,180 Climbing Washington Center
10:31PM 39.1750 -76.0361 78° East 393 452 19,700 2,880 Climbing Washington Center
10:32PM 39.1964 -75.8889 79° East 413 475 22,500 2,460 Climbing Washington Center
10:33PM 39.2758 -75.7739 48° Northeast 400 460 24,700 1,920 Climbing Washington Center
10:34PM 39.3656 -75.6614 44° Northeast 425 489 26,300 1,140 Climbing Washington Center
10:35PM 39.4531 -75.5458 46° Northeast 436 502 27,000 300 Climbing Washington Center
10:36PM 39.5447 -75.4247 46° Northeast 447 514 27,000  Level Washington Center
10:37PM 39.6361 -75.3058 45° Northeast 453 521 27,000  Level Washington Center
10:38PM 39.7289 -75.1761 47° Northeast 475 547 27,000  Level New York Center
10:39PM 39.8172 -75.0464 48° Northeast 482 555 27,000  Level New York Center
10:40PM 39.9050 -74.9247 47° Northeast 475 547 27,000  Level New York Center
10:41PM 40.0047 -74.8142 40° Northeast 465 535 27,000  Level New York Center
10:42PM 40.0981 -74.7000 43° Northeast 459 528 27,000  Level New York Center
10:43PM 40.1936 -74.5886 42° Northeast 459 528 27,000  Level New York Center
10:44PM 40.2956 -74.4611 44° Northeast 459 528 27,000  Level New York Center
10:45PM 40.3908 -74.3461 43° Northeast 459 528 27,000  Level New York Center
10:47PM 40.5367 -74.1658 43° Northeast 480 552 27,000 -60 Level Boston Center
10:48PM 40.6300 -74.0508 43° Northeast 475 547 26,900 -900 Descending Boston Center
10:49PM 40.7231 -73.9464 40° Northeast 453 521 25,200 -1,500 Descending Boston Center
10:50PM 40.8119 -73.8386 43° Northeast 438 504 24,000 -660 Descending Boston Center
10:51PM 40.9050 -73.7281 42° Northeast 433 498 23,800 -480 Descending Boston Center
10:52PM 41.0128 -73.5981 42° Northeast 433 498 23,000 -600 Descending Boston Center
10:53PM 41.1056 -73.4922 41° Northeast 433 498 22,600 -720 Descending Boston Center
10:54PM 41.2144 -73.4169 27° Northeast 438 504 21,600 -1,020 Descending Boston Center
10:55PM 41.3250 -73.4019 North 406 467 20,600 -1,500 Descending Boston Center
10:56PM 41.4394 -73.4203 353° North 382 440 18,600 -1,440 Descending Boston Center
10:57PM 41.5375 -73.4331 354° North 364 419 17,800 -420 Descending Boston Center
10:58PM 41.6267 -73.4567 349° North 343 395 17,800  Level Boston Center
10:59PM 41.7161 -73.4831 348° North 326 375 17,800 -60 Level Boston Center
11:00PM 41.8033 -73.5122 346° North 326 375 17,700 -1,080 Descending Boston Center
11:01PM 41.8886 -73.5389 347° North 313 360 15,700 -1,920 Descending Boston Center
11:02PM 41.9739 -73.5656 347° North 301 346 13,800 -1,920 Descending Boston Center
11:03PM 42.0508 -73.5864 349° North 297 342 11,900 -1,440 Descending Boston Center
11:04PM 42.1192 -73.6100 346° North 292 336 11,000 -480 Descending Boston Center
11:05PM 42.2044 -73.6342 348° North 292 336 11,000 -120 Level Boston Center
11:06PM 42.2833 -73.6525 350° North 297 342 10,800 -720 Descending Boston Center
11:07PM 42.3731 -73.6428 North 283 326 9,600 -1,380 Descending Boston Center
11:08PM 42.4461 -73.6386 North 269 310 8,100 -1,500 Descending Boston Center
11:09PM 42.5128 -73.6511 352° North 263 303 6,700 -1,320 Descending Boston Center
11:10PM 42.5897 -73.6642 353° North 258 297 5,500 -960 Descending Boston Center
11:11PM 42.6458 -73.6708 355° North 236 272 4,800 -780 Descending Boston Center
11:12PM 42.7125 -73.6778 356° North 218 251 4,000 -720 Descending Boston Center
11:13PM 42.7644 -73.6844 355° North 208 239 3,400 -840 Descending Boston Center
11:14PM 42.8125 -73.6939 352° North 175 201 2,400 -900 Descending Boston Center
11:15PM 42.8328 -73.7283 309° West 151 174 1,700 -420 Descending Boston Center
11:16PM 42.8194 -73.7989 256° West 127 146 1,600 -480 Descending Boston Center
11:17PM 42.7819 -73.8092 191° South 143 165 800 -840 Descending Boston Center